Time;durP1;ratioP1;P1;durP2;ratioP2;P2;SDS_P1;SDS_P2;PMS_P1;PMS_P2;Temp;Humidity;BMP_temperature;BMP_pressure;BME280_temperature;BME280_humidity;BME280_pressure;Samples;Min_cycle;Max_cycle;Signal;HPM_P1;HPM_P2
2022/07/19 00:01:39;;;;;;;9.33;5.63;;;18.90;69.00;;;;;;5021272;28;20096;-68
2022/07/19 00:04:05;;;;;;;9.70;6.70;;;18.80;69.20;;;;;;5004864;28;20045;-66
2022/07/19 00:06:31;;;;;;;8.20;6.43;;;18.80;69.30;;;;;;5006829;28;20049;-66
2022/07/19 00:08:58;;;;;;;9.93;6.20;;;18.70;69.30;;;;;;5006999;28;20308;-67
2022/07/19 00:11:23;;;;;;;8.77;5.87;;;18.70;69.30;;;;;;5005946;28;20506;-66
2022/07/19 00:13:49;;;;;;;8.63;6.37;;;18.70;69.50;;;;;;5005085;28;20296;-67
2022/07/19 00:16:15;;;;;;;9.43;6.40;;;18.60;69.50;;;;;;5005235;28;20624;-67
2022/07/19 00:18:41;;;;;;;11.37;6.37;;;18.60;69.40;;;;;;5004667;28;20038;-67
2022/07/19 00:21:07;;;;;;;9.73;5.80;;;18.60;69.50;;;;;;4974004;28;20065;-67
2022/07/19 00:23:33;;;;;;;9.63;6.30;;;18.60;69.70;;;;;;5005880;28;20312;-67
2022/07/19 00:25:58;;;;;;;9.13;6.33;;;18.50;69.60;;;;;;5007785;28;20054;-67
2022/07/19 00:28:24;;;;;;;10.63;6.50;;;18.50;69.60;;;;;;4989581;28;20050;-67
2022/07/19 00:30:50;;;;;;;8.23;5.90;;;18.50;69.60;;;;;;4991028;28;20042;-67
2022/07/19 00:33:15;;;;;;;11.47;6.57;;;18.50;69.70;;;;;;5011329;28;20041;-67
2022/07/19 00:35:41;;;;;;;8.80;6.13;;;18.40;69.80;;;;;;5022133;28;20050;-67
2022/07/19 00:38:12;;;;;;;10.53;6.13;;;18.40;69.80;;;;;;5004391;28;20049;-68
2022/07/19 00:40:38;;;;;;;9.80;6.33;;;18.40;69.80;;;;;;5025633;28;20096;-68
2022/07/19 00:43:05;;;;;;;11.07;6.47;;;18.40;69.80;;;;;;5016346;28;20368;-68
2022/07/19 00:45:30;;;;;;;10.77;6.60;;;18.40;69.80;;;;;;5005246;28;20812;-67
2022/07/19 00:47:56;;;;;;;9.23;6.33;;;18.30;69.80;;;;;;4990642;28;20313;-67
2022/07/19 00:50:23;;;;;;;13.47;6.80;;;18.30;70.00;;;;;;5008703;28;20042;-67
2022/07/19 00:52:54;;;;;;;9.67;5.97;;;18.30;69.90;;;;;;4991250;28;20335;-68
2022/07/19 00:55:21;;;;;;;10.53;6.30;;;18.30;70.10;;;;;;5008486;28;20288;-67
2022/07/19 00:57:48;;;;;;;7.63;5.80;;;18.30;70.00;;;;;;4992244;28;21029;-67
2022/07/19 01:00:16;;;;;;;6.90;5.20;;;18.30;69.90;;;;;;5019687;28;20288;-67
2022/07/19 01:02:42;;;;;;;7.40;5.23;;;18.30;69.90;;;;;;5008535;28;20284;-67
2022/07/19 01:05:10;;;;;;;9.53;5.77;;;18.30;69.70;;;;;;5012581;28;20683;-67
2022/07/19 01:07:37;;;;;;;7.97;5.40;;;18.30;69.70;;;;;;4991242;28;20303;-67
2022/07/19 01:10:04;;;;;;;7.97;5.23;;;18.30;69.70;;;;;;5019426;28;20312;-67
2022/07/19 01:12:31;;;;;;;8.47;5.67;;;18.30;69.60;;;;;;5007962;28;20350;-67
2022/07/19 01:14:57;;;;;;;7.80;5.83;;;18.30;69.90;;;;;;5009746;28;20297;-67
2022/07/19 01:17:23;;;;;;;9.30;5.70;;;18.20;70.20;;;;;;5013411;28;20304;-67
2022/07/19 01:19:49;;;;;;;8.43;5.77;;;18.20;70.60;;;;;;5006902;28;20622;-67
2022/07/19 01:22:15;;;;;;;9.57;5.67;;;18.20;70.70;;;;;;5020396;28;20290;-67
2022/07/19 01:24:41;;;;;;;9.20;4.93;;;18.10;70.80;;;;;;5011695;28;20104;-67
2022/07/19 01:27:07;;;;;;;11.57;5.97;;;18.10;71.00;;;;;;5005800;28;20049;-67
2022/07/19 01:29:36;;;;;;;8.37;5.80;;;18.10;71.20;;;;;;5006789;28;20053;-67
2022/07/19 01:32:05;;;;;;;8.57;5.80;;;18.10;71.40;;;;;;4966499;28;20663;-67
2022/07/19 01:34:32;;;;;;;7.40;5.47;;;18.00;71.60;;;;;;5006930;28;20300;-67
2022/07/19 01:36:58;;;;;;;10.53;5.50;;;18.00;71.80;;;;;;5006672;28;20672;-68
2022/07/19 01:39:23;;;;;;;9.97;5.60;;;18.00;71.80;;;;;;5006620;28;20285;-68
2022/07/19 01:41:49;;;;;;;9.77;5.57;;;18.00;72.10;;;;;;4987474;28;20568;-68
2022/07/19 01:44:15;;;;;;;9.23;5.83;;;18.00;71.90;;;;;;5006288;28;20505;-67
2022/07/19 01:46:41;;;;;;;8.70;5.63;;;18.00;72.10;;;;;;5006263;28;20041;-67
2022/07/19 01:49:07;;;;;;;7.97;5.50;;;17.90;72.20;;;;;;5015216;28;20343;-67
2022/07/19 01:51:33;;;;;;;8.37;5.80;;;17.90;72.20;;;;;;5006555;28;20120;-67
2022/07/19 01:53:59;;;;;;;8.20;5.67;;;17.90;72.10;;;;;;5006201;28;20046;-67
2022/07/19 01:56:24;;;;;;;11.20;6.10;;;17.90;72.10;;;;;;5009207;28;20052;-67
2022/07/19 01:58:50;;;;;;;7.77;5.47;;;17.90;71.90;;;;;;4974988;28;20819;-67
2022/07/19 02:01:16;;;;;;;11.40;5.80;;;17.80;71.90;;;;;;4991304;28;20037;-67
2022/07/19 02:03:41;;;;;;;9.63;5.80;;;17.80;71.80;;;;;;5002014;28;20046;-67
2022/07/19 02:06:07;;;;;;;8.00;5.50;;;17.80;71.80;;;;;;5006238;28;20639;-67
2022/07/19 02:08:33;;;;;;;10.67;5.87;;;17.80;71.70;;;;;;5025310;28;20080;-67
2022/07/19 02:10:59;;;;;;;9.70;5.93;;;17.80;71.80;;;;;;4974546;28;20046;-67
2022/07/19 02:13:25;;;;;;;7.97;5.33;;;17.70;71.80;;;;;;4990234;28;20543;-67
2022/07/19 02:15:51;;;;;;;8.83;6.03;;;17.70;71.90;;;;;;4989524;28;20049;-68
2022/07/19 02:18:18;;;;;;;10.37;6.27;;;17.70;71.90;;;;;;5020523;28;20328;-68
2022/07/19 02:20:43;;;;;;;10.27;5.70;;;17.70;71.80;;;;;;4990642;28;20369;-68
2022/07/19 02:23:09;;;;;;;11.17;5.90;;;17.60;72.10;;;;;;4974135;28;20852;-68
2022/07/19 02:25:35;;;;;;;8.30;6.00;;;17.60;72.10;;;;;;4990366;28;20498;-68
2022/07/19 02:28:01;;;;;;;9.33;5.57;;;17.60;72.00;;;;;;5007935;28;20042;-68
2022/07/19 02:30:27;;;;;;;9.87;6.43;;;17.60;72.10;;;;;;5007395;28;20084;-68
2022/07/19 02:32:53;;;;;;;10.40;6.43;;;17.60;72.20;;;;;;4990435;28;20050;-68
2022/07/19 02:35:19;;;;;;;7.53;5.93;;;17.50;72.00;;;;;;5006727;28;20293;-67
2022/07/19 02:37:45;;;;;;;9.33;5.90;;;17.50;71.80;;;;;;5006536;28;20042;-67
2022/07/19 02:40:11;;;;;;;9.20;6.53;;;17.50;71.80;;;;;;4986997;28;20101;-67
2022/07/19 02:42:37;;;;;;;9.27;5.77;;;17.50;71.90;;;;;;5003251;28;20367;-67
2022/07/19 02:45:04;;;;;;;9.07;5.93;;;17.50;71.80;;;;;;5006027;28;20709;-67
2022/07/19 02:47:30;;;;;;;8.77;5.87;;;17.40;72.20;;;;;;4988662;28;20380;-67
2022/07/19 02:49:55;;;;;;;9.97;6.20;;;17.40;72.10;;;;;;4990701;28;21014;-67
2022/07/19 02:52:21;;;;;;;8.17;5.97;;;17.40;72.00;;;;;;5006673;28;20371;-67
2022/07/19 02:54:47;;;;;;;8.93;6.47;;;17.40;72.10;;;;;;5022947;28;20046;-67
2022/07/19 02:57:13;;;;;;;11.87;6.90;;;17.30;72.50;;;;;;4992828;28;20053;-67
2022/07/19 02:59:38;;;;;;;8.90;5.87;;;17.40;72.40;;;;;;4989712;28;20472;-67
2022/07/19 03:02:04;;;;;;;9.73;6.37;;;17.30;72.40;;;;;;4990221;28;20041;-67
2022/07/19 03:04:30;;;;;;;8.30;6.30;;;17.30;72.20;;;;;;5000601;28;20045;-67
2022/07/19 03:06:55;;;;;;;10.00;6.60;;;17.30;72.20;;;;;;5005582;28;20133;-67
2022/07/19 03:09:21;;;;;;;7.67;5.83;;;17.30;72.20;;;;;;5016786;28;20054;-66
2022/07/19 03:11:47;;;;;;;10.90;6.43;;;17.30;72.10;;;;;;5006368;28;20104;-67
2022/07/19 03:14:13;;;;;;;10.70;6.53;;;17.30;72.00;;;;;;5006280;28;20038;-67
2022/07/19 03:16:38;;;;;;;8.93;6.27;;;17.30;72.00;;;;;;5022104;28;20300;-68
2022/07/19 03:19:04;;;;;;;9.63;6.53;;;17.30;72.00;;;;;;5012196;28;20054;-68
2022/07/19 03:21:30;;;;;;;9.73;5.90;;;17.30;72.00;;;;;;5006429;28;20096;-67
2022/07/19 03:23:56;;;;;;;10.37;6.30;;;17.30;72.30;;;;;;5004648;28;20054;-67
2022/07/19 03:26:21;;;;;;;9.17;6.10;;;17.30;72.10;;;;;;5022063;28;20037;-67
2022/07/19 03:28:47;;;;;;;8.93;6.47;;;17.30;72.10;;;;;;4970043;28;20085;-67
2022/07/19 03:31:13;;;;;;;10.30;6.17;;;17.30;72.10;;;;;;5019311;28;20504;-67
2022/07/19 03:33:38;;;;;;;8.57;6.50;;;17.30;72.30;;;;;;5003866;28;20048;-67
2022/07/19 03:36:04;;;;;;;9.17;6.73;;;17.30;72.30;;;;;;5003824;28;20046;-66
2022/07/19 03:38:30;;;;;;;10.30;6.33;;;17.30;72.30;;;;;;4984781;28;20044;-66
2022/07/19 03:40:55;;;;;;;9.60;6.47;;;17.30;72.00;;;;;;5004464;28;20479;-66
2022/07/19 03:43:23;;;;;;;8.23;5.83;;;17.30;72.00;;;;;;5005098;28;20238;-66
2022/07/19 03:45:48;;;;;;;9.13;6.40;;;17.30;72.00;;;;;;5004670;28;20107;-66
2022/07/19 03:48:14;;;;;;;11.27;7.73;;;17.30;72.10;;;;;;5005246;28;20293;-68
2022/07/19 03:50:40;;;;;;;8.30;6.67;;;17.30;72.10;;;;;;5004917;28;20068;-68
2022/07/19 03:53:06;;;;;;;9.70;6.57;;;17.30;71.90;;;;;;4987804;28;20128;-68
2022/07/19 03:55:32;;;;;;;11.40;7.10;;;17.30;71.90;;;;;;5016381;28;20044;-67
2022/07/19 03:57:57;;;;;;;8.83;7.03;;;17.40;72.10;;;;;;5005040;28;20673;-67
2022/07/19 04:00:23;;;;;;;9.17;6.80;;;17.40;71.90;;;;;;5027220;28;20042;-67
2022/07/19 04:02:49;;;;;;;9.37;6.77;;;17.40;71.70;;;;;;4984444;28;20050;-67
2022/07/19 04:05:15;;;;;;;9.53;6.40;;;17.50;71.70;;;;;;5003601;28;20101;-67
2022/07/19 04:07:40;;;;;;;9.07;6.23;;;17.50;71.50;;;;;;4995077;28;20041;-67
2022/07/19 04:10:07;;;;;;;10.37;7.20;;;17.50;71.50;;;;;;4997893;28;20174;-67
2022/07/19 04:12:34;;;;;;;11.07;6.63;;;17.50;71.50;;;;;;5007642;28;20050;-67
2022/07/19 04:15:00;;;;;;;9.13;6.60;;;17.60;71.30;;;;;;5005624;28;20376;-67
2022/07/19 04:17:26;;;;;;;10.67;6.27;;;17.60;71.30;;;;;;5005182;28;20313;-67
2022/07/19 04:19:52;;;;;;;9.43;6.40;;;17.60;71.10;;;;;;5003761;28;20633;-67
2022/07/19 04:22:18;;;;;;;7.97;6.60;;;17.70;71.00;;;;;;5024708;28;20301;-67
2022/07/19 04:24:44;;;;;;;8.60;6.20;;;17.70;70.80;;;;;;5024285;28;20042;-67
2022/07/19 04:27:10;;;;;;;10.43;6.70;;;17.70;70.80;;;;;;5007833;28;20120;-67
2022/07/19 04:29:36;;;;;;;9.03;6.43;;;17.80;70.70;;;;;;5005630;28;20064;-67
2022/07/19 04:32:02;;;;;;;11.57;6.90;;;17.90;70.70;;;;;;5010862;28;20054;-67
2022/07/19 04:34:28;;;;;;;9.27;6.33;;;17.90;70.60;;;;;;5007584;28;20308;-68
2022/07/19 04:36:53;;;;;;;9.93;6.50;;;17.90;70.50;;;;;;4991243;28;20042;-67
2022/07/19 04:39:19;;;;;;;12.57;7.20;;;18.00;70.40;;;;;;4991833;28;20050;-67
2022/07/19 04:41:45;;;;;;;9.23;6.40;;;18.00;70.30;;;;;;5009870;28;20050;-67
2022/07/19 04:44:10;;;;;;;10.27;6.33;;;18.00;70.10;;;;;;4988187;28;20034;-66
2022/07/19 04:46:36;;;;;;;9.57;6.67;;;18.10;70.00;;;;;;5007335;28;20494;-66
2022/07/19 04:49:02;;;;;;;8.33;6.33;;;18.10;70.00;;;;;;5004911;28;20045;-66
2022/07/19 04:51:27;;;;;;;8.97;6.07;;;18.30;69.80;;;;;;4993563;28;20145;-67
2022/07/19 04:53:53;;;;;;;7.50;5.67;;;18.60;69.30;;;;;;5012834;28;20053;-66
2022/07/19 04:56:19;;;;;;;13.73;6.73;;;18.70;69.00;;;;;;5006910;28;20406;-66
2022/07/19 04:58:45;;;;;;;10.70;6.03;;;18.90;68.50;;;;;;5008371;28;20045;-66
2022/07/19 05:01:10;;;;;;;10.17;6.43;;;19.00;68.10;;;;;;5006966;28;20125;-67
2022/07/19 05:03:36;;;;;;;9.83;6.27;;;19.20;67.80;;;;;;4992171;28;20576;-66
2022/07/19 05:06:02;;;;;;;10.80;6.53;;;19.50;67.30;;;;;;5022323;28;20042;-66
2022/07/19 05:08:27;;;;;;;7.10;6.00;;;19.90;66.10;;;;;;5028829;28;20042;-66
2022/07/19 05:10:53;;;;;;;8.00;6.03;;;20.20;65.30;;;;;;5007474;28;20521;-67
2022/07/19 05:13:19;;;;;;;7.03;5.43;;;20.60;64.50;;;;;;5004794;28;20045;-67
2022/07/19 05:15:44;;;;;;;6.60;5.53;;;21.10;63.30;;;;;;5006933;28;20061;-67
2022/07/19 05:18:10;;;;;;;9.97;6.33;;;21.60;62.10;;;;;;5005484;28;20069;-67
2022/07/19 05:20:36;;;;;;;8.17;6.07;;;22.10;61.00;;;;;;4991382;28;20042;-67
2022/07/19 05:23:02;;;;;;;7.17;5.40;;;22.40;60.00;;;;;;5007370;28;20038;-66
2022/07/19 05:25:28;;;;;;;7.33;5.13;;;22.90;59.20;;;;;;4971068;28;20289;-67
2022/07/19 05:27:55;;;;;;;12.00;6.03;;;23.20;58.20;;;;;;5007711;28;20041;-67
2022/07/19 05:30:21;;;;;;;8.20;5.47;;;23.60;57.00;;;;;;5000817;28;20062;-67
2022/07/19 05:32:47;;;;;;;6.03;4.77;;;23.80;56.40;;;;;;5007682;28;20299;-67
2022/07/19 05:35:13;;;;;;;8.00;5.47;;;24.10;55.80;;;;;;5007663;28;20105;-67
2022/07/19 05:37:38;;;;;;;6.23;5.00;;;24.40;55.20;;;;;;5007255;28;20497;-68
2022/07/19 05:40:04;;;;;;;7.20;4.77;;;24.60;54.40;;;;;;5007401;28;20482;-67
2022/07/19 05:42:30;;;;;;;6.60;4.83;;;24.90;54.20;;;;;;4989207;28;20516;-68
2022/07/19 05:44:56;;;;;;;7.60;5.23;;;25.10;53.50;;;;;;5026033;28;20037;-68
2022/07/19 05:47:22;;;;;;;7.30;5.33;;;25.30;53.10;;;;;;5026732;28;20501;-67
2022/07/19 05:49:47;;;;;;;7.87;5.57;;;25.50;52.80;;;;;;5010511;28;20033;-67
2022/07/19 05:52:13;;;;;;;12.40;5.40;;;25.60;52.20;;;;;;5040310;28;20136;-67
2022/07/19 05:54:39;;;;;;;7.93;5.07;;;25.80;52.10;;;;;;5026908;28;20466;-67
2022/07/19 05:57:04;;;;;;;7.50;4.50;;;26.00;51.60;;;;;;5026161;28;20049;-67
2022/07/19 05:59:30;;;;;;;8.83;5.00;;;26.00;51.20;;;;;;5020292;28;20149;-67
2022/07/19 06:01:56;;;;;;;9.10;4.90;;;26.10;50.90;;;;;;5025003;28;20047;-67
2022/07/19 06:04:21;;;;;;;8.97;5.67;;;26.20;50.80;;;;;;5023842;28;20037;-67
2022/07/19 06:06:47;;;;;;;7.43;5.17;;;26.30;50.90;;;;;;5036130;28;20112;-67
2022/07/19 06:09:13;;;;;;;7.57;5.13;;;26.40;50.60;;;;;;5025056;28;20057;-65
2022/07/19 06:11:40;;;;;;;10.07;5.30;;;26.40;50.80;;;;;;4990802;28;20501;-67
2022/07/19 06:14:08;;;;;;;9.40;5.30;;;26.60;50.70;;;;;;5005133;28;20545;-67
2022/07/19 06:16:35;;;;;;;7.57;5.17;;;26.60;50.80;;;;;;5026152;28;20048;-67
2022/07/19 06:19:01;;;;;;;13.57;5.67;;;26.80;50.60;;;;;;5025253;28;20038;-67
2022/07/19 06:21:27;;;;;;;7.20;5.17;;;26.90;50.20;;;;;;5025392;28;20452;-67
2022/07/19 06:23:52;;;;;;;10.93;5.87;;;27.10;50.00;;;;;;5033850;28;20383;-67
2022/07/19 06:26:18;;;;;;;7.73;5.00;;;27.20;49.50;;;;;;4996653;28;20050;-67
2022/07/19 06:28:44;;;;;;;8.40;5.00;;;27.20;49.20;;;;;;5022555;28;20045;-67
2022/07/19 06:31:11;;;;;;;8.60;5.70;;;27.10;49.20;;;;;;5020019;28;20034;-67
2022/07/19 06:33:47;;;;;;;7.70;5.00;;;27.20;49.20;;;;;;5004711;28;20087;-67
2022/07/19 06:36:13;;;;;;;6.87;5.30;;;27.20;49.20;;;;;;5023539;28;20124;-67
2022/07/19 06:38:41;;;;;;;8.77;5.37;;;27.20;49.50;;;;;;5023755;28;20124;-67
2022/07/19 06:41:06;;;;;;;7.87;5.27;;;27.30;49.60;;;;;;5023880;28;20041;-67
2022/07/19 06:43:32;;;;;;;7.77;5.43;;;27.40;49.90;;;;;;5020153;28;20498;-67
2022/07/19 06:45:58;;;;;;;7.33;5.10;;;27.50;49.70;;;;;;5007630;28;20033;-68
2022/07/19 06:48:24;;;;;;;9.73;5.20;;;27.60;49.80;;;;;;5023827;28;20049;-68
2022/07/19 06:50:49;;;;;;;6.83;5.17;;;27.60;49.70;;;;;;5023640;28;20452;-68
2022/07/19 06:53:15;;;;;;;6.83;4.73;;;27.70;49.60;;;;;;5020731;28;20083;-68
2022/07/19 06:55:41;;;;;;;8.20;5.23;;;27.70;49.90;;;;;;5024035;28;20033;-67
2022/07/19 06:58:07;;;;;;;8.87;5.37;;;27.70;50.10;;;;;;5006010;28;20096;-68
2022/07/19 07:00:32;;;;;;;6.87;4.73;;;27.70;50.20;;;;;;5006873;28;20413;-68
2022/07/19 07:02:58;;;;;;;8.53;5.57;;;27.60;50.20;;;;;;5019612;28;20073;-67
2022/07/19 07:05:24;;;;;;;7.57;4.33;;;27.50;50.50;;;;;;5006861;28;20076;-67
2022/07/19 07:07:51;;;;;;;8.00;4.40;;;27.40;50.90;;;;;;5023729;28;20037;-67
2022/07/19 07:10:17;;;;;;;6.63;4.60;;;27.40;51.40;;;;;;5002256;28;20136;-67
2022/07/19 07:12:43;;;;;;;6.03;5.03;;;27.30;51.80;;;;;;5036355;28;20296;-67
2022/07/19 07:15:09;;;;;;;6.43;4.47;;;27.10;51.70;;;;;;5023567;28;20053;-68
2022/07/19 07:17:35;;;;;;;7.53;5.00;;;27.00;52.20;;;;;;5024269;28;20120;-68
2022/07/19 07:20:02;;;;;;;9.97;4.23;;;26.80;52.60;;;;;;5020091;28;20077;-69
2022/07/19 07:22:28;;;;;;;7.07;4.33;;;26.70;53.20;;;;;;5007326;28;20045;-68
2022/07/19 07:24:54;;;;;;;7.33;4.23;;;26.50;53.20;;;;;;5023427;28;20048;-67
2022/07/19 07:27:20;;;;;;;8.77;4.27;;;26.30;53.80;;;;;;5005151;28;20093;-67
2022/07/19 07:29:45;;;;;;;6.87;4.10;;;26.10;54.30;;;;;;5007530;28;20076;-67
2022/07/19 07:32:11;;;;;;;6.73;3.90;;;26.10;55.00;;;;;;5024076;28;20103;-67
2022/07/19 07:34:36;;;;;;;8.23;4.10;;;26.10;54.60;;;;;;5004956;28;20049;-67
2022/07/19 07:37:02;;;;;;;4.70;3.30;;;26.10;53.90;;;;;;5038725;28;20152;-68
2022/07/19 07:39:28;;;;;;;5.47;3.33;;;26.10;53.50;;;;;;5024152;28;20034;-68
2022/07/19 07:41:53;;;;;;;5.07;3.20;;;26.10;54.40;;;;;;5028344;28;20029;-67
2022/07/19 07:44:19;;;;;;;4.90;3.60;;;26.20;54.80;;;;;;5011208;28;20038;-67
2022/07/19 07:46:45;;;;;;;6.87;3.00;;;26.30;53.40;;;;;;5010922;28;20437;-67
2022/07/19 07:49:10;;;;;;;6.13;3.60;;;26.40;53.30;;;;;;4995269;28;20163;-67
2022/07/19 07:51:36;;;;;;;4.73;2.90;;;26.50;53.20;;;;;;5027331;28;20115;-67
2022/07/19 07:54:03;;;;;;;4.20;2.83;;;26.60;53.60;;;;;;5000229;28;20600;-67
2022/07/19 07:56:28;;;;;;;7.50;3.50;;;26.70;53.60;;;;;;5010017;28;20055;-67
2022/07/19 07:58:54;;;;;;;5.03;3.20;;;26.80;53.30;;;;;;5015976;28;20624;-67
2022/07/19 08:01:20;;;;;;;4.97;3.00;;;26.90;53.20;;;;;;5018159;28;20033;-68
2022/07/19 08:03:46;;;;;;;4.93;3.10;;;27.10;52.90;;;;;;5020510;28;20115;-68
2022/07/19 08:06:12;;;;;;;5.10;2.30;;;27.20;52.70;;;;;;5026542;28;20037;-68
2022/07/19 08:08:38;;;;;;;3.50;2.47;;;27.30;51.90;;;;;;4992446;28;20048;-69
2022/07/19 08:11:05;;;;;;;5.80;2.70;;;27.40;51.00;;;;;;5022283;28;20057;-69
2022/07/19 08:13:30;;;;;;;3.17;2.40;;;27.50;50.70;;;;;;5024116;28;20052;-68
2022/07/19 08:15:56;;;;;;;6.87;2.50;;;27.70;50.70;;;;;;5024698;28;20037;-69
2022/07/19 08:18:22;;;;;;;5.50;2.50;;;27.80;51.20;;;;;;5022097;28;20056;-68
2022/07/19 08:20:47;;;;;;;5.10;2.20;;;28.00;50.80;;;;;;5010708;28;20033;-68
2022/07/19 08:23:13;;;;;;;4.93;2.43;;;28.10;50.10;;;;;;5024689;28;20037;-68
2022/07/19 08:25:39;;;;;;;4.30;2.30;;;28.20;49.80;;;;;;5022790;28;20037;-68
2022/07/19 08:28:05;;;;;;;5.03;2.10;;;28.40;50.80;;;;;;5008577;28;20037;-68
2022/07/19 08:30:31;;;;;;;4.97;2.13;;;28.60;50.00;;;;;;5022696;28;20219;-69
2022/07/19 08:32:57;;;;;;;6.57;2.00;;;28.60;49.10;;;;;;5006104;28;20037;-69
2022/07/19 08:35:22;;;;;;;6.77;2.00;;;28.80;49.20;;;;;;5025916;28;20103;-69
2022/07/19 08:37:48;;;;;;;5.23;2.43;;;28.90;49.80;;;;;;5023421;28;20124;-68
2022/07/19 08:40:14;;;;;;;6.97;1.93;;;29.10;49.70;;;;;;5023192;28;20395;-68
2022/07/19 08:42:40;;;;;;;2.93;1.87;;;29.20;48.30;;;;;;5021218;28;20079;-69
2022/07/19 08:45:10;;;;;;;4.00;1.93;;;29.40;47.40;;;;;;5007278;28;20630;-69
2022/07/19 08:47:37;;;;;;;3.77;2.00;;;29.50;47.10;;;;;;5020117;28;20052;-68
2022/07/19 08:50:05;;;;;;;6.03;1.83;;;29.60;46.40;;;;;;5023991;28;20498;-67
2022/07/19 08:52:35;;;;;;;4.30;2.13;;;29.70;47.50;;;;;;5000248;28;20494;-67
2022/07/19 08:55:02;;;;;;;3.93;2.00;;;29.90;47.00;;;;;;5020559;28;20367;-68
2022/07/19 09:00:13;;;;;;;3.35;1.58;;;30.20;45.30;;;;;;5018130;28;20045;-68
2022/07/19 09:02:39;;;;;;;4.17;1.60;;;30.30;45.80;;;;;;5005707;28;20065;-68
2022/07/19 09:05:10;;;;;;;5.30;1.70;;;30.40;44.90;;;;;;5020365;28;20081;-68
2022/07/19 09:07:37;;;;;;;3.50;1.50;;;30.40;44.80;;;;;;5023113;28;20058;-68
2022/07/19 09:10:20;;;;;;;2.93;1.40;;;30.50;45.00;;;;;;5003152;28;20061;-67
2022/07/19 09:13:10;;;;;;;3.58;1.50;;;30.70;44.40;;;;;;5035025;28;20574;-67
2022/07/19 09:15:39;;;;;;;4.73;1.70;;;30.80;44.50;;;;;;5017481;28;20052;-68
2022/07/19 09:18:10;;;;;;;3.33;1.50;;;31.00;44.50;;;;;;5017040;28;20071;-68
2022/07/19 09:20:36;;;;;;;2.70;1.40;;;31.10;44.60;;;;;;5006763;28;20030;-68
2022/07/19 09:23:03;;;;;;;2.90;1.70;;;31.20;44.00;;;;;;5017504;28;20040;-67
2022/07/19 09:25:35;;;;;;;3.00;1.40;;;31.30;42.80;;;;;;5034371;28;20049;-68
2022/07/19 09:28:01;;;;;;;3.33;1.43;;;31.40;42.80;;;;;;5018359;28;20046;-68
2022/07/19 09:30:56;;;;;;;6.23;1.60;;;31.50;42.40;;;;;;5002428;28;20048;-67
2022/07/19 09:33:26;;;;;;;;;;;31.60;42.80;;;;;;5022887;28;20099;-67
2022/07/19 09:36:00;;;;;;;4.43;1.27;;;31.70;42.70;;;;;;5014837;28;20275;-68
2022/07/19 09:38:32;;;;;;;3.47;1.40;;;31.80;43.10;;;;;;5013185;28;20137;-67
2022/07/19 09:41:14;;;;;;;3.27;1.27;;;32.00;41.70;;;;;;5019898;28;20080;-68
2022/07/19 09:43:51;;;;;;;3.43;1.30;;;32.10;41.40;;;;;;5030849;28;20041;-67
2022/07/19 09:46:30;;;;;;;5.23;1.50;;;32.20;41.60;;;;;;5035413;28;20505;-67
2022/07/19 09:49:14;;;;;;;3.53;1.30;;;32.40;40.30;;;;;;5005941;28;20129;-67
2022/07/19 09:51:41;;;;;;;;;;;32.50;40.70;;;;;;5038045;28;20057;-67
2022/07/19 09:54:09;;;;;;;2.27;1.30;;;32.60;40.70;;;;;;5035532;28;19921;-67
2022/07/19 09:56:41;;;;;;;4.47;1.23;;;32.60;40.10;;;;;;5022622;28;20163;-67
2022/07/19 09:59:08;;;;;;;3.20;1.60;;;32.70;39.90;;;;;;5025197;28;20092;-67
2022/07/19 10:01:34;;;;;;;3.63;1.50;;;32.80;39.40;;;;;;5025216;28;20033;-67
2022/07/19 10:04:25;;;;;;;3.67;1.30;;;32.90;39.00;;;;;;5024025;28;20080;-67
2022/07/19 10:06:52;;;;;;;4.07;1.07;;;32.90;39.20;;;;;;5024360;28;20823;-67
2022/07/19 10:09:20;;;;;;;3.93;1.33;;;33.00;39.50;;;;;;5024460;28;20061;-67
2022/07/19 10:11:45;;;;;;;3.05;1.40;;;33.10;39.30;;;;;;5022501;28;20481;-67
2022/07/19 10:14:11;;;;;;;6.35;1.40;;;33.20;39.10;;;;;;5036780;28;20045;-67
2022/07/19 10:16:48;;;;;;;4.57;1.23;;;33.30;38.30;;;;;;5025419;28;20033;-67
2022/07/19 10:19:39;;;;;;;4.70;1.40;;;33.40;37.70;;;;;;5024563;28;20414;-67
2022/07/19 10:22:09;;;;;;;3.65;1.55;;;33.50;37.00;;;;;;5026812;28;20046;-67
2022/07/19 10:24:44;;;;;;;2.47;1.40;;;33.60;37.10;;;;;;5019421;28;20046;-67
2022/07/19 10:27:11;;;;;;;2.80;1.00;;;33.60;36.10;;;;;;5037590;28;20446;-67
2022/07/19 10:29:36;;;;;;;4.47;1.20;;;33.60;37.50;;;;;;5021815;28;20037;-67
2022/07/19 10:32:08;;;;;;;2.10;1.15;;;33.70;37.20;;;;;;5004542;28;21279;-67
2022/07/19 10:34:35;;;;;;;4.57;1.75;;;33.80;36.60;;;;;;5025088;28;20033;-67
2022/07/19 10:37:00;;;;;;;2.72;0.93;;;33.90;36.90;;;;;;5014986;28;20029;-67
2022/07/19 10:39:38;;;;;;;2.45;1.20;;;34.00;37.70;;;;;;4998692;28;20555;-67
2022/07/19 10:42:09;;;;;;;2.60;1.20;;;34.10;36.30;;;;;;5021376;28;20116;-67
2022/07/19 10:44:55;;;;;;;3.58;1.08;;;34.20;35.80;;;;;;5022370;28;20037;-67
2022/07/19 10:47:37;;;;;;;3.88;1.30;;;34.30;36.00;;;;;;5002544;28;20049;-67
2022/07/19 10:50:14;;;;;;;3.00;1.40;;;34.30;34.90;;;;;;5039636;28;20052;-67
2022/07/19 10:52:42;;;;;;;6.07;1.50;;;34.30;34.10;;;;;;5024069;28;20049;-67
2022/07/19 10:55:17;;;;;;;2.72;1.13;;;34.20;34.80;;;;;;5006867;28;20051;-67
2022/07/19 10:57:59;;;;;;;3.55;0.90;;;34.30;35.10;;;;;;5004875;28;20037;-67
2022/07/19 11:00:47;;;;;;;2.72;1.10;;;34.40;34.50;;;;;;5018220;28;20044;-68
2022/07/19 11:03:22;;;;;;;3.22;1.40;;;34.40;34.70;;;;;;5037846;28;20061;-68
2022/07/19 11:05:57;;;;;;;3.70;1.35;;;34.50;34.60;;;;;;5021762;28;20041;-68
2022/07/19 11:08:38;;;;;;;2.83;1.50;;;34.60;34.70;;;;;;5039863;28;20095;-68
2022/07/19 11:11:04;;;;;;;2.28;1.10;;;34.60;34.70;;;;;;5019799;28;20054;-68
2022/07/19 11:13:30;;;;;;;3.67;1.30;;;34.70;34.60;;;;;;5013641;28;20170;-68
2022/07/19 11:15:57;;;;;;;4.25;1.00;;;34.80;34.20;;;;;;5022174;28;20073;-68
2022/07/19 11:18:22;;;;;;;2.28;1.15;;;34.90;34.10;;;;;;5006971;28;20037;-68
2022/07/19 11:20:49;;;;;;;2.92;1.00;;;35.00;34.30;;;;;;5005872;28;20542;-68
2022/07/19 11:23:19;;;;;;;4.78;1.77;;;35.10;34.10;;;;;;5007258;28;20045;-68
2022/07/19 11:25:46;;;;;;;2.08;1.02;;;35.10;33.90;;;;;;5008082;28;20033;-68
2022/07/19 11:28:24;;;;;;;4.43;1.35;;;35.30;34.50;;;;;;5025795;28;20044;-68
2022/07/19 11:30:51;;;;;;;1.95;1.13;;;35.40;32.60;;;;;;5025886;28;20701;-68
2022/07/19 11:33:19;;;;;;;2.25;1.25;;;35.40;33.50;;;;;;5023536;28;20555;-68
2022/07/19 11:36:00;;;;;;;2.75;0.90;;;35.50;33.40;;;;;;5005000;28;20045;-68
2022/07/19 11:38:39;;;;;;;3.67;1.30;;;35.60;33.40;;;;;;5038745;28;20041;-68
2022/07/19 11:41:25;;;;;;;3.33;1.10;;;35.60;33.20;;;;;;5025142;28;20483;-68
2022/07/19 11:44:05;;;;;;;2.95;1.30;;;35.70;32.60;;;;;;5018444;28;20076;-68
2022/07/19 11:46:40;;;;;;;4.07;1.10;;;35.70;33.30;;;;;;5024012;28;20046;-69
2022/07/19 11:49:09;;;;;;;2.95;1.20;;;35.70;32.60;;;;;;5020868;28;20108;-68
2022/07/19 11:51:35;;;;;;;3.85;1.20;;;35.80;32.40;;;;;;5040371;28;20045;-68
2022/07/19 11:54:03;;;;;;;3.15;1.23;;;35.80;32.40;;;;;;5025492;28;20072;-68
2022/07/19 11:56:30;;;;;;;2.58;1.08;;;35.80;32.50;;;;;;5007976;28;20111;-68
2022/07/19 11:58:58;;;;;;;3.30;1.38;;;35.80;33.00;;;;;;4997178;28;20510;-68
2022/07/19 12:01:33;;;;;;;3.50;1.23;;;35.80;32.80;;;;;;5024125;28;20041;-68
2022/07/19 12:04:05;;;;;;;4.78;1.02;;;35.90;33.20;;;;;;5038730;28;20037;-68
2022/07/19 12:06:41;;;;;;;3.08;0.98;;;36.00;32.50;;;;;;5017502;28;20041;-69
2022/07/19 12:09:19;;;;;;;3.33;0.95;;;36.10;32.30;;;;;;5024214;28;20085;-69
2022/07/19 12:11:50;;;;;;;3.67;1.08;;;36.20;31.90;;;;;;5022324;28;20041;-69
2022/07/19 12:14:18;;;;;;;4.38;1.13;;;36.30;31.90;;;;;;5021384;28;20119;-69
2022/07/19 12:16:44;;;;;;;2.85;1.08;;;36.40;31.50;;;;;;5022818;28;20075;-67
2022/07/19 12:19:17;;;;;;;3.75;1.10;;;36.50;31.30;;;;;;5022581;28;20586;-67
2022/07/19 12:21:44;;;;;;;3.70;0.98;;;36.50;31.00;;;;;;5021456;28;20040;-67
2022/07/19 12:24:11;;;;;;;3.47;1.00;;;36.60;31.70;;;;;;5020832;28;20039;-68
2022/07/19 12:26:38;;;;;;;4.85;1.25;;;36.80;31.30;;;;;;5023487;28;20044;-68
2022/07/19 12:29:29;;;;;;;1.73;1.27;;;36.80;31.50;;;;;;5042786;28;20033;-68
2022/07/19 12:31:58;;;;;;;2.53;1.15;;;36.90;32.00;;;;;;5020494;28;20037;-68
2022/07/19 12:34:24;;;;;;;2.38;1.00;;;37.00;31.70;;;;;;5022140;28;20053;-68
2022/07/19 12:36:50;;;;;;;3.72;1.38;;;37.10;31.60;;;;;;5027107;28;20045;-68
2022/07/19 12:39:26;;;;;;;4.45;1.25;;;37.20;30.60;;;;;;5008592;28;20520;-68
2022/07/19 12:42:05;;;;;;;5.55;1.55;;;37.10;30.50;;;;;;5027952;28;20401;-68
2022/07/19 12:44:33;;;;;;;4.60;1.35;;;37.10;31.50;;;;;;5019487;28;20044;-68
2022/07/19 12:46:59;;;;;;;6.00;1.42;;;37.20;30.80;;;;;;5028375;28;20042;-69
2022/07/19 12:49:25;;;;;;;3.28;1.50;;;37.20;30.30;;;;;;5027207;28;20099;-70
2022/07/19 12:51:52;;;;;;;4.05;1.50;;;37.20;30.10;;;;;;5027243;28;20045;-69